Time;durP1;ratioP1;P1;durP2;ratioP2;P2;SDS_P1;SDS_P2;PMS_P1;PMS_P2;Temp;Humidity;BMP_temperature;BMP_pressure;BME280_temperature;BME280_humidity;BME280_pressure;Samples;Min_cycle;Max_cycle;Signal;HPM_P1;HPM_P2
2021/03/21 00:00:46;;;;;;;;;;;;;;;4.00;95.05;102015.75;5055279;28;2066;-73
2021/03/21 00:03:12;;;;;;;;;;;;;;;4.02;95.24;101999.91;5055171;28;880;-73
2021/03/21 00:05:38;;;;;;;;;;;;;;;4.09;94.38;102010.56;5055037;28;1042;-73
2021/03/21 00:08:07;;;;;;;;;;;;;;;4.09;94.25;102002.38;5036785;28;1286;-73
2021/03/21 00:10:35;;;;;;;;;;;;;;;4.09;94.88;101996.91;5055471;28;939;-73
2021/03/21 00:13:02;;;;;;;;;;;;;;;4.11;94.69;101990.06;5054958;28;2049;-73
2021/03/21 00:15:27;;;;;;;;;;;;;;;4.11;94.50;101989.25;5054293;28;1994;-73
2021/03/21 00:17:54;;;;;;;;;;;;;;;4.15;94.83;101984.88;5055080;28;759;-73
2021/03/21 00:20:25;;;;;;;;;;;;;;;4.17;95.11;101981.88;5055200;28;1274;-73
2021/03/21 00:22:50;;;;;;;;;;;;;;;4.18;94.86;101973.41;5055110;28;832;-73
2021/03/21 00:25:18;;;;;;;;;;;;;;;4.21;95.34;101964.66;5053968;28;1410;-73
2021/03/21 00:27:43;;;;;;;;;;;;;;;4.23;94.80;101980.78;5054860;28;2061;-73
2021/03/21 00:30:13;;;;;;;;;;;;;;;4.25;94.79;101973.13;5054683;28;2287;-73
2021/03/21 00:32:40;;;;;;;;;;;;;;;4.13;95.61;101954.25;5035229;28;915;-73
2021/03/21 00:35:06;;;;;;;;;;;;;;;4.27;94.96;101970.94;5034839;28;1871;-73
2021/03/21 00:37:32;;;;;;;;;;;;;;;4.29;94.87;101964.13;5034833;28;933;-73
2021/03/21 00:39:57;;;;;;;;;;;;;;;4.29;95.16;101960.53;5035111;28;1263;-73
2021/03/21 00:42:22;;;;;;;;;;;;;;;4.28;95.31;101959.72;5035203;28;992;-73
2021/03/21 00:44:48;;;;;;;;;;;;;;;4.30;95.10;101956.72;5044854;28;2177;-73
2021/03/21 00:47:13;;;;;;;;;;;;;;;4.32;95.16;101960.00;5054066;28;2108;-73
2021/03/21 00:49:38;;;;;;;;;;;;;;;4.35;95.73;101955.91;5054804;28;1262;-73
2021/03/21 00:52:04;;;;;;;;;;;;;;;4.33;95.49;101962.47;5037046;28;1384;-73
2021/03/21 00:54:29;;;;;;;;;;;;;;;4.35;95.57;101951.25;5054805;28;1894;-73
2021/03/21 00:56:54;;;;;;;;;;;;;;;4.36;95.17;101941.13;5054180;28;918;-73
2021/03/21 00:59:20;;;;;;;;;;;;;;;4.39;95.19;101940.59;5054153;28;1270;-73
2021/03/21 01:01:45;;;;;;;;;;;;;;;4.41;95.45;101939.22;5053820;28;2241;-73
2021/03/21 01:04:12;;;;;;;;;;;;;;;4.43;95.23;101928.81;5054365;28;916;-73
2021/03/21 01:06:37;;;;;;;;;;;;;;;4.45;95.04;101923.09;5054377;28;944;-73
2021/03/21 01:09:14;;;;;;;;;;;;;;;4.47;94.04;101923.63;5054024;28;1361;-73
2021/03/21 01:11:39;;;;;;;;;;;;;;;4.50;94.11;101917.59;5055032;28;774;-73
2021/03/21 01:14:06;;;;;;;;;;;;;;;4.52;94.50;101920.88;5054301;28;901;-73
2021/03/21 01:16:35;;;;;;;;;;;;;;;4.52;94.23;101913.50;5053254;28;2266;-73
2021/03/21 01:19:02;;;;;;;;;;;;;;;4.57;94.18;101906.34;5053905;28;1357;-73
2021/03/21 01:21:30;;;;;;;;;;;;;;;4.57;94.28;101911.81;5054962;28;798;-73
2021/03/21 01:23:56;;;;;;;;;;;;;;;4.58;93.60;101902.53;5054838;28;959;-73
2021/03/21 01:26:24;;;;;;;;;;;;;;;4.57;93.67;101901.72;5054676;28;918;-73
2021/03/21 01:28:50;;;;;;;;;;;;;;;4.61;94.03;101886.38;5053739;28;2236;-73
2021/03/21 01:31:18;;;;;;;;;;;;;;;4.60;93.98;101892.13;5054224;28;2074;-73
2021/03/21 01:33:44;;;;;;;;;;;;;;;4.60;94.14;101889.41;5054443;28;877;-73
2021/03/21 01:36:13;;;;;;;;;;;;;;;4.60;94.08;101898.44;5053162;28;1894;-73
2021/03/21 01:38:39;;;;;;;;;;;;;;;4.60;94.24;101886.66;5053627;28;1349;-73
2021/03/21 01:41:12;;;;;;;;;;;;;;;4.62;93.89;101887.19;5055784;28;849;-73
2021/03/21 01:43:41;;;;;;;;;;;;;;;4.59;94.42;101883.13;5058066;28;2158;-73
2021/03/21 01:46:07;;;;;;;;;;;;;;;4.60;94.00;101884.75;5056150;28;2121;-73
2021/03/21 01:48:39;;;;;;;;;;;;;;;4.57;94.61;101879.00;5057317;28;1262;-73
2021/03/21 01:51:13;;;;;;;;;;;;;;;4.54;94.82;101872.19;5058463;28;916;-73
2021/03/21 01:53:42;;;;;;;;;;;;;;;4.54;94.66;101874.09;5039725;28;1340;-73
2021/03/21 01:56:10;;;;;;;;;;;;;;;4.54;94.76;101863.97;5057241;28;1897;-73
2021/03/21 01:58:37;;;;;;;;;;;;;;;4.51;95.20;101867.25;5056964;28;2073;-73
2021/03/21 02:01:16;;;;;;;;;;;;;;;4.51;94.75;101867.25;5056567;28;2188;-73
2021/03/21 02:03:42;;;;;;;;;;;;;;;4.49;94.79;101861.25;5057870;28;941;-73
2021/03/21 02:06:25;;;;;;;;;;;;;;;4.48;95.30;101865.91;5057287;28;825;-73
2021/03/21 02:09:17;;;;;;;;;;;;;;;4.48;95.19;101865.06;5057258;28;1400;-73
2021/03/21 02:11:59;;;;;;;;;;;;;;;4.47;95.20;101866.19;5028978;28;1994;-73
2021/03/21 02:14:40;;;;;;;;;;;;;;;4.45;95.48;101861.00;5057526;28;1894;-73
2021/03/21 02:17:21;;;;;;;;;;;;;;;4.46;95.69;101859.88;5057032;28;2188;-74
2021/03/21 02:20:12;;;;;;;;;;;;;;;4.45;95.01;101862.91;5056282;28;1646;-73
2021/03/21 02:22:49;;;;;;;;;;;;;;;4.43;95.56;101854.16;5056990;28;900;-73
2021/03/21 02:25:39;;;;;;;;;;;;;;;4.40;96.04;101855.53;5057181;28;2160;-73
2021/03/21 02:28:31;;;;;;;;;;;;;;;4.41;96.06;101843.50;5056736;28;1246;-74
2021/03/21 02:31:02;;;;;;;;;;;;;;;4.40;96.28;101849.25;5056734;28;2218;-73
2021/03/21 02:33:45;;;;;;;;;;;;;;;4.40;96.10;101855.53;5056911;28;988;-73
2021/03/21 02:36:27;;;;;;;;;;;;;;;4.39;96.08;101856.63;5057428;28;1952;-73
2021/03/21 02:38:58;;;;;;;;;;;;;;;4.38;95.59;101857.72;5056856;28;2166;-73
2021/03/21 02:41:47;;;;;;;;;;;;;;;4.36;95.13;101850.88;5056910;28;953;-73
2021/03/21 02:44:39;;;;;;;;;;;;;;;4.33;94.03;101858.56;5056653;28;2039;-73
2021/03/21 02:47:13;;;;;;;;;;;;;;;4.29;94.02;101857.47;5028498;28;2939;-73
2021/03/21 02:49:43;;;;;;;;;;;;;;;4.25;93.64;101839.16;5057310;28;1377;-73
2021/03/21 02:52:15;;;;;;;;;;;;;;;4.22;93.42;101842.44;5055016;28;2106;-73
2021/03/21 02:55:14;;;;;;;;;;;;;;;4.21;93.24;101852.56;5057066;28;1894;-73
2021/03/21 02:57:47;;;;;;;;;;;;;;;4.19;92.84;101841.09;5056495;28;888;-73
2021/03/21 03:00:15;;;;;;;;;;;;;;;4.15;92.72;101834.50;5058489;28;2021;-73
2021/03/21 03:02:52;;;;;;;;;;;;;;;4.06;92.45;101838.91;5042254;28;1149;-74
2021/03/21 03:05:24;;;;;;;;;;;;;;;4.00;92.95;101829.91;5037925;28;1012;-73
2021/03/21 03:08:23;;;;;;;;;;;;;;;4.04;93.00;101828.25;5036033;28;1012;-73
2021/03/21 03:10:59;;;;;;;;;;;;;;;4.05;92.42;101829.91;5036321;28;822;-73
2021/03/21 03:13:34;;;;;;;;;;;;;;;4.07;92.19;101819.50;5036400;28;948;-73
2021/03/21 03:16:07;;;;;;;;;;;;;;;4.10;92.41;101818.97;5052247;28;2224;-73
2021/03/21 03:19:01;;;;;;;;;;;;;;;4.09;92.31;101816.50;5056071;28;1373;-73
2021/03/21 03:21:48;;;;;;;;;;;;;;;4.09;91.99;101816.50;5056410;28;988;-73
2021/03/21 03:24:45;;;;;;;;;;;;;;;4.08;91.72;101814.84;5056096;28;817;-73
2021/03/21 03:27:19;;;;;;;;;;;;;;;4.08;91.98;101812.13;5055796;28;1031;-73
2021/03/21 03:29:52;;;;;;;;;;;;;;;4.13;91.09;101814.84;5055594;28;2165;-73
2021/03/21 03:32:17;;;;;;;;;;;;;;;4.16;91.29;101802.56;5055226;28;2143;-73
2021/03/21 03:34:47;;;;;;;;;;;;;;;4.14;91.92;101798.16;5056401;28;1902;-73
2021/03/21 03:37:13;;;;;;;;;;;;;;;4.14;91.58;101800.09;5057359;28;977;-74
2021/03/21 03:39:42;;;;;;;;;;;;;;;4.13;92.23;101792.97;5038991;28;1408;-73
2021/03/21 03:42:13;;;;;;;;;;;;;;;4.12;92.62;101799.56;5055251;28;1989;-73
2021/03/21 03:45:10;;;;;;;;;;;;;;;4.11;92.65;101804.19;5055972;28;984;-73
2021/03/21 03:48:03;;;;;;;;;;;;;;;4.09;93.11;101800.09;5055271;28;2224;-73
2021/03/21 03:50:49;;;;;;;;;;;;;;;4.08;93.33;101795.72;5055817;28;813;-73
2021/03/21 03:53:19;;;;;;;;;;;;;;;4.07;93.50;101791.38;5045396;28;1611;-73
2021/03/21 03:55:55;;;;;;;;;;;;;;;4.06;93.83;101795.19;5054923;28;2140;-73
2021/03/21 03:58:25;;;;;;;;;;;;;;;4.07;94.07;101791.38;5036993;28;1267;-73
2021/03/21 04:01:09;;;;;;;;;;;;;;;4.07;93.62;101789.44;5055514;28;2268;-73
2021/03/21 04:03:51;;;;;;;;;;;;;;;4.06;93.64;101786.97;5055055;28;877;-73
2021/03/21 04:06:34;;;;;;;;;;;;;;;4.07;94.56;101788.63;5055783;28;996;-73
2021/03/21 04:09:16;;;;;;;;;;;;;;;4.08;93.52;101791.09;5057024;28;1282;-73
2021/03/21 04:11:49;;;;;;;;;;;;;;;4.07;93.78;101783.16;5036660;28;822;-73
2021/03/21 04:14:24;;;;;;;;;;;;;;;4.07;94.13;101789.44;5035570;28;1063;-73
2021/03/21 04:16:57;;;;;;;;;;;;;;;4.07;94.01;101783.16;5031588;28;2039;-73
2021/03/21 04:19:27;;;;;;;;;;;;;;;4.09;94.26;101784.50;5055053;28;1306;-73
2021/03/21 04:22:04;;;;;;;;;;;;;;;4.08;93.84;101791.09;5054520;28;2258;-73
2021/03/21 04:24:40;;;;;;;;;;;;;;;4.07;94.18;101764.84;5054619;28;1064;-73
2021/03/21 04:27:17;;;;;;;;;;;;;;;4.06;93.70;101760.47;5055144;28;866;-73
2021/03/21 04:29:55;;;;;;;;;;;;;;;4.07;94.06;101767.56;5055467;28;1275;-73
2021/03/21 04:32:34;;;;;;;;;;;;;;;4.08;93.16;101768.38;5054602;28;2252;-73
2021/03/21 04:35:06;;;;;;;;;;;;;;;4.10;93.50;101760.72;5054978;28;1894;-73
2021/03/21 04:37:33;;;;;;;;;;;;;;;4.09;93.78;101754.44;5054791;28;1054;-73
2021/03/21 04:40:00;;;;;;;;;;;;;;;4.09;92.83;101762.66;5054389;28;1958;-73
2021/03/21 04:42:51;;;;;;;;;;;;;;;4.08;92.96;101762.91;5054566;28;1063;-73
2021/03/21 04:45:21;;;;;;;;;;;;;;;4.05;93.76;101760.72;5054616;28;2159;-73
2021/03/21 04:47:56;;;;;;;;;;;;;;;4.01;93.13;101765.94;5054752;28;914;-73
2021/03/21 04:50:22;;;;;;;;;;;;;;;4.01;92.91;101755.00;5055182;28;1421;-73
2021/03/21 04:52:52;;;;;;;;;;;;;;;3.99;91.89;101765.41;5054704;28;1003;-73
2021/03/21 04:55:25;;;;;;;;;;;;;;;4.00;91.35;101766.22;5055086;28;1898;-73
2021/03/21 04:58:00;;;;;;;;;;;;;;;4.02;91.13;101780.44;5054933;28;2046;-73
2021/03/21 05:00:30;;;;;;;;;;;;;;;4.04;91.41;101780.97;5054890;28;2041;-73
2021/03/21 05:03:15;;;;;;;;;;;;;;;4.03;91.35;101776.59;5054313;28;859;-73
2021/03/21 05:05:46;;;;;;;;;;;;;;;4.05;91.80;101777.13;5053730;28;1194;-73
2021/03/21 05:08:19;;;;;;;;;;;;;;;4.03;91.08;101788.38;5053888;28;2027;-73
2021/03/21 05:10:49;;;;;;;;;;;;;;;4.02;91.36;101777.72;5054814;28;802;-73
2021/03/21 05:13:43;;;;;;;;;;;;;;;4.04;89.40;101762.66;5054126;28;1012;-73
2021/03/21 05:16:19;;;;;;;;;;;;;;;4.08;86.75;101777.44;5056206;28;2137;-73
2021/03/21 05:18:51;;;;;;;;;;;;;;;4.07;87.26;101788.63;5058220;28;1341;-73
2021/03/21 05:21:28;;;;;;;;;;;;;;;4.06;87.53;101793.25;5058836;28;2022;-74
2021/03/21 05:24:39;;;;;;;;;;;;;;;4.05;88.07;101790.78;5058664;28;829;-73
2021/03/21 05:27:16;;;;;;;;;;;;;;;4.04;88.92;101794.66;5049731;28;1722;-73
2021/03/21 05:29:49;;;;;;;;;;;;;;;4.01;89.00;101801.47;5057819;28;2012;-73
2021/03/21 05:32:17;;;;;;;;;;;;;;;3.99;89.11;101813.78;5057695;28;2092;-73
2021/03/21 05:34:43;;;;;;;;;;;;;;;3.92;85.73;101808.59;5058013;28;1894;-73
2021/03/21 05:37:21;;;;;;;;;;;;;;;3.90;83.22;101816.25;5057904;28;991;-74
2021/03/21 05:39:52;;;;;;;;;;;;;;;3.87;83.65;101811.34;5058278;28;1452;-73
2021/03/21 05:42:47;;;;;;;;;;;;;;;3.88;82.27;101824.72;5058526;28;920;-73
2021/03/21 05:45:39;;;;;;;;;;;;;;;3.88;82.31;101818.44;5043658;28;2071;-73
2021/03/21 05:48:27;;;;;;;;;;;;;;;3.89;82.57;101831.00;5057986;28;1278;-73
2021/03/21 05:51:16;;;;;;;;;;;;;;;3.90;82.63;101824.44;5058376;28;817;-73
2021/03/21 05:54:12;;;;;;;;;;;;;;;3.93;82.38;101834.84;5057903;28;946;-73
2021/03/21 05:57:15;;;;;;;;;;;;;;;3.98;81.38;101828.53;5057745;28;1890;-73
2021/03/21 05:59:58;;;;;;;;;;;;;;;4.03;80.82;101839.47;5057397;28;2046;-73
2021/03/21 06:02:41;;;;;;;;;;;;;;;4.06;79.97;101834.25;5057223;28;2110;-73
2021/03/21 06:05:51;;;;;;;;;;;;;;;4.09;78.90;101846.56;5057325;28;2047;-73
2021/03/21 06:08:28;;;;;;;;;;;;;;;4.11;78.91;101856.13;5057092;28;1345;-73
2021/03/21 06:11:06;;;;;;;;;;;;;;;4.09;77.22;101863.78;5057757;28;802;-73
2021/03/21 06:13:41;;;;;;;;;;;;;;;4.07;78.56;101876.91;5057447;28;2105;-73
2021/03/21 06:16:35;;;;;;;;;;;;;;;4.10;78.56;101872.78;5057044;28;2118;-73
2021/03/21 06:19:39;;;;;;;;;;;;;;;4.12;77.66;101867.91;5059556;28;1306;-73
2021/03/21 06:22:32;;;;;;;;;;;;;;;4.14;77.48;101873.91;5023538;28;1288;-73
2021/03/21 06:25:37;;;;;;;;;;;;;;;4.23;77.13;101869.50;5057144;28;911;-73
2021/03/21 06:28:05;;;;;;;;;;;;;;;4.31;77.72;101871.69;5055919;28;2215;-73
2021/03/21 06:30:58;;;;;;;;;;;;;;;4.32;77.25;101884.25;5056806;28;2052;-73
2021/03/21 06:33:45;;;;;;;;;;;;;;;4.38;77.41;101889.72;5058447;28;1070;-73
2021/03/21 06:36:30;;;;;;;;;;;;;;;4.33;76.45;101896.03;5057380;28;1963;-73
2021/03/21 06:39:26;;;;;;;;;;;;;;;4.38;76.25;101895.19;5056796;28;1365;-73
2021/03/21 06:42:10;;;;;;;;;;;;;;;4.36;76.53;101891.91;5056626;28;2062;-73
2021/03/21 06:44:50;;;;;;;;;;;;;;;4.41;76.00;101879.06;5057596;28;873;-73
2021/03/21 06:47:18;;;;;;;;;;;;;;;4.51;75.78;101892.69;5058367;28;1935;-73
2021/03/21 06:49:49;;;;;;;;;;;;;;;4.57;74.41;101893.53;5060306;28;1361;-73
2021/03/21 06:52:42;;;;;;;;;;;;;;;4.64;73.97;101888.56;5057629;28;1020;-73
2021/03/21 06:55:29;;;;;;;;;;;;;;;4.66;74.15;101894.56;5056431;28;2050;-73
2021/03/21 06:58:23;;;;;;;;;;;;;;;4.57;73.04;101899.00;5036951;28;1003;-73
2021/03/21 07:01:00;;;;;;;;;;;;;;;4.60;73.19;101889.41;5033914;28;2031;-73
2021/03/21 07:03:42;;;;;;;;;;;;;;;4.74;74.05;101892.38;5056778;28;879;-73
2021/03/21 07:06:27;;;;;;;;;;;;;;;4.83;73.16;101913.41;5055873;28;2254;-73
2021/03/21 07:09:47;;;;;;;;;;;;;;;4.87;73.06;101911.75;5055710;28;2062;-73
2021/03/21 07:12:41;;;;;;;;;;;;;;;4.89;72.94;101906.81;4995418;28;1072;-73
2021/03/21 07:15:21;;;;;;;;;;;;;;;4.81;72.76;101895.63;5056746;28;1902;-73
2021/03/21 07:18:15;;;;;;;;;;;;;;;4.83;72.82;101910.69;5036548;28;940;-73
2021/03/21 07:21:10;;;;;;;;;;;;;;;4.79;72.69;101920.53;5035632;28;1853;-73
2021/03/21 07:24:01;;;;;;;;;;;;;;;4.82;72.68;101910.94;5056447;28;2073;-73
2021/03/21 07:26:52;;;;;;;;;;;;;;;4.90;72.77;101916.66;5056539;28;920;-73
2021/03/21 07:29:47;;;;;;;;;;;;;;;5.01;71.85;101925.66;5055890;28;1527;-73
2021/03/21 07:32:35;;;;;;;;;;;;;;;5.01;71.42;101913.91;5055689;28;2237;-73
2021/03/21 07:35:45;;;;;;;;;;;;;;;5.01;70.53;101913.91;5056441;28;1898;-73
2021/03/21 07:38:20;;;;;;;;;;;;;;;5.12;70.98;101903.72;4993406;28;1370;-73
2021/03/21 07:40:50;;;;;;;;;;;;;;;5.18;70.62;101910.81;5048770;28;1959;-73
2021/03/21 07:43:43;;;;;;;;;;;;;;;5.31;70.68;101914.84;5056739;28;840;-73
2021/03/21 07:46:27;;;;;;;;;;;;;;;5.57;69.74;101894.44;5056447;28;2224;-73
2021/03/21 07:49:05;;;;;;;;;;;;;;;5.61;69.33;101914.69;5056187;28;1790;-73
2021/03/21 07:51:36;;;;;;;;;;;;;;;5.76;69.66;101907.44;5060220;28;916;-71
2021/03/21 07:54:22;;;;;;;;;;;;;;;5.97;69.05;101900.75;5054152;28;1047;-70
2021/03/21 07:56:54;;;;;;;;;;;;;;;6.30;68.52;101889.19;5055097;28;2034;-71
2021/03/21 07:59:25;;;;;;;;;;;;;;;6.15;66.43;101903.91;5055136;28;1298;-71
2021/03/21 08:01:51;;;;;;;;;;;;;;;6.07;67.31;101899.03;5055329;28;2046;-71
2021/03/21 08:04:20;;;;;;;;;;;;;;;6.40;66.68;101911.88;5038349;28;928;-71
2021/03/21 08:06:54;;;;;;;;;;;;;;;6.27;67.66;101907.06;5055688;28;2114;-71
2021/03/21 08:09:23;;;;;;;;;;;;;;;6.03;67.83;101904.25;5055634;28;1314;-73
2021/03/21 08:11:57;;;;;;;;;;;;;;;5.93;67.75;101891.41;5055481;28;1004;-73
2021/03/21 08:14:31;;;;;;;;;;;;;;;5.81;67.70;101880.84;5055913;28;897;-73
2021/03/21 08:17:03;;;;;;;;;;;;;;;5.77;68.28;101907.16;5055075;28;2155;-73
2021/03/21 08:19:32;;;;;;;;;;;;;;;5.75;67.63;101916.78;5055369;28;1306;-73
2021/03/21 08:21:58;;;;;;;;;;;;;;;5.86;68.46;101929.31;5056108;28;814;-73
2021/03/21 08:24:30;;;;;;;;;;;;;;;5.97;68.17;101933.66;5056127;28;885;-73
2021/03/21 08:27:01;;;;;;;;;;;;;;;6.08;67.50;101917.13;5056451;28;941;-73
2021/03/21 08:29:28;;;;;;;;;;;;;;;6.36;66.63;101918.22;5055314;28;2196;-73
2021/03/21 08:32:13;;;;;;;;;;;;;;;6.54;66.56;101919.41;5054446;28;2066;-73
2021/03/21 08:34:44;;;;;;;;;;;;;;;6.57;65.81;101921.59;5054987;28;2217;-73
2021/03/21 08:37:27;;;;;;;;;;;;;;;6.63;65.72;101919.59;5055028;28;835;-74
2021/03/21 08:40:17;;;;;;;;;;;;;;;6.62;65.55;101928.97;5055020;28;1393;-73
2021/03/21 08:42:45;;;;;;;;;;;;;;;6.80;64.63;101924.66;5056164;28;851;-73
2021/03/21 08:45:13;;;;;;;;;;;;;;;6.93;64.40;101919.25;5055673;28;811;-73
2021/03/21 08:47:39;;;;;;;;;;;;;;;7.07;64.13;101913.06;5054805;28;2171;-73
2021/03/21 08:50:06;;;;;;;;;;;;;;;6.97;64.59;101936.81;5057665;28;1345;-73
2021/03/21 08:52:42;;;;;;;;;;;;;;;6.86;64.51;101932.53;5061493;28;881;-73
2021/03/21 08:55:36;;;;;;;;;;;;;;;6.83;63.65;101930.38;5061603;28;1973;-73
2021/03/21 08:58:25;;;;;;;;;;;;;;;6.97;63.68;101935.97;5062489;28;1341;-73
2021/03/21 09:00:50;;;;;;;;;;;;;;;6.94;63.59;101934.66;5061047;28;2014;-73
2021/03/21 09:03:26;;;;;;;;;;;;;;;6.78;63.66;101938.66;5061086;28;988;-73
2021/03/21 09:05:54;;;;;;;;;;;;;;;6.72;64.42;101935.16;5062348;28;868;-73
2021/03/21 09:08:24;;;;;;;;;;;;;;;6.98;63.78;101926.63;5044101;28;2108;-73
2021/03/21 09:11:00;;;;;;;;;;;;;;;6.97;62.60;101923.09;5062030;28;814;-73
2021/03/21 09:13:28;;;;;;;;;;;;;;;6.88;63.10;101930.31;5060878;28;2248;-73
2021/03/21 09:15:53;;;;;;;;;;;;;;;7.20;63.30;101939.84;5061247;28;2188;-74
2021/03/21 09:18:23;;;;;;;;;;;;;;;7.33;61.71;101933.59;5059441;28;2359;-73
2021/03/21 09:21:16;;;;;;;;;;;;;;;7.21;61.72;101935.16;5060780;28;866;-74
2021/03/21 09:23:48;;;;;;;;;;;;;;;7.42;61.21;101927.44;5061303;28;2007;-74
2021/03/21 09:26:16;;;;;;;;;;;;;;;7.64;60.87;101935.13;5060867;28;837;-74
2021/03/21 09:28:54;;;;;;;;;;;;;;;7.60;59.90;101940.41;5060861;28;1664;-74
2021/03/21 09:31:20;;;;;;;;;;;;;;;7.19;61.22;101945.63;5060031;28;2374;-73
2021/03/21 09:33:52;;;;;;;;;;;;;;;7.38;60.77;101949.22;5061097;28;826;-74
2021/03/21 09:36:36;;;;;;;;;;;;;;;7.97;58.95;101949.72;5060896;28;1910;-73
2021/03/21 09:39:12;;;;;;;;;;;;;;;7.99;58.69;101953.00;5060427;28;1903;-73
2021/03/21 09:41:38;;;;;;;;;;;;;;;8.71;56.33;101953.75;5061302;28;1929;-73
2021/03/21 09:44:39;;;;;;;;;;;;;;;9.30;54.14;101929.97;5061010;28;2056;-73
2021/03/21 09:47:43;;;;;;;;;;;;;;;8.79;55.40;101947.53;5059685;28;1936;-74
2021/03/21 09:50:20;;;;;;;;;;;;;;;9.22;53.31;101955.50;5012763;28;1414;-73
2021/03/21 09:53:12;;;;;;;;;;;;;;;9.42;53.47;101957.00;5060186;28;2159;-74
2021/03/21 09:55:44;;;;;;;;;;;;;;;9.77;51.72;101965.63;5006910;28;2170;-74
2021/03/21 09:58:19;;;;;;;;;;;;;;;9.55;51.64;101958.09;5059467;28;1967;-74
2021/03/21 10:00:53;;;;;;;;;;;;;;;9.73;52.27;101965.41;5060503;28;860;-73
2021/03/21 10:03:25;;;;;;;;;;;;;;;9.59;52.25;101965.44;5057202;28;1915;-73
2021/03/21 10:06:09;;;;;;;;;;;;;;;8.93;53.27;101970.41;5057474;28;862;-73
2021/03/21 10:08:43;;;;;;;;;;;;;;;8.81;54.28;101972.84;5057122;28;2018;-73
2021/03/21 10:11:14;;;;;;;;;;;;;;;8.94;53.96;101974.78;5058016;28;817;-72
2021/03/21 10:13:42;;;;;;;;;;;;;;;9.73;53.87;101970.94;5057518;28;1058;-73
2021/03/21 10:16:18;;;;;;;;;;;;;;;9.91;51.12;101968.31;5057101;28;1902;-73
2021/03/21 10:18:45;;;;;;;;;;;;;;;9.59;50.52;101972.91;5057011;28;2154;-73
2021/03/21 10:21:28;;;;;;;;;;;;;;;8.99;53.30;101985.69;5057628;28;987;-73
2021/03/21 10:23:58;;;;;;;;;;;;;;;9.25;53.24;101993.47;5056557;28;2312;-73
2021/03/21 10:26:31;;;;;;;;;;;;;;;8.94;52.90;101976.72;5057014;28;2099;-73
2021/03/21 10:28:59;;;;;;;;;;;;;;;10.24;50.63;101981.91;5057245;28;1373;-73
2021/03/21 10:31:27;;;;;;;;;;;;;;;11.10;48.22;101987.09;5057262;28;2109;-73
2021/03/21 10:34:15;;;;;;;;;;;;;;;10.57;48.37;101992.69;5057241;28;2038;-73
2021/03/21 10:36:41;;;;;;;;;;;;;;;10.32;50.00;101998.56;5051267;28;1930;-74
2021/03/21 10:39:11;;;;;;;;;;;;;;;10.75;48.67;101983.38;5056176;28;1397;-73
2021/03/21 10:41:57;;;;;;;;;;;;;;;10.28;48.70;101974.63;5055259;28;1850;-73
2021/03/21 10:44:44;;;;;;;;;;;;;;;10.33;48.45;101980.06;5056388;28;813;-73
2021/03/21 10:47:27;;;;;;;;;;;;;;;10.14;48.98;101983.78;5056239;28;1364;-74
2021/03/21 10:49:59;;;;;;;;;;;;;;;10.27;48.90;101993.13;5056888;28;1341;-74
2021/03/21 10:52:52;;;;;;;;;;;;;;;10.65;47.73;101991.94;5050345;28;1862;-74
2021/03/21 10:55:21;;;;;;;;;;;;;;;10.24;48.73;101990.97;5029132;28;1934;-73
2021/03/21 10:57:51;;;;;;;;;;;;;;;10.02;49.31;101978.00;5056300;28;909;-74
2021/03/21 11:00:31;;;;;;;;;;;;;;;9.90;49.47;101994.31;5055913;28;1907;-73
2021/03/21 11:03:02;;;;;;;;;;;;;;;9.52;50.51;101994.59;5056155;28;2059;-73
2021/03/21 11:05:39;;;;;;;;;;;;;;;9.22;51.55;101986.66;5055357;28;2217;-73
2021/03/21 11:08:07;;;;;;;;;;;;;;;10.10;48.33;101985.53;5038916;28;1278;-73
2021/03/21 11:10:37;;;;;;;;;;;;;;;9.97;49.21;101975.38;5056675;28;957;-73
2021/03/21 11:13:03;;;;;;;;;;;;;;;9.79;49.43;101990.94;5055308;28;2054;-73
2021/03/21 11:15:31;;;;;;;;;;;;;;;9.33;50.86;101978.16;5055642;28;2045;-73
2021/03/21 11:18:02;;;;;;;;;;;;;;;9.34;50.80;101988.06;5055964;28;853;-73
2021/03/21 11:20:32;;;;;;;;;;;;;;;9.88;49.22;101986.34;5055516;28;2054;-73
2021/03/21 11:22:58;;;;;;;;;;;;;;;10.20;48.86;101983.66;5055871;28;1047;-73
2021/03/21 11:25:39;;;;;;;;;;;;;;;10.54;48.22;101983.13;5054237;28;1412;-73
2021/03/21 11:28:06;;;;;;;;;;;;;;;9.74;49.39;101986.38;5054670;28;2115;-73
2021/03/21 11:30:34;;;;;;;;;;;;;;;9.64;49.66;101974.72;5055335;28;2063;-73
2021/03/21 11:33:31;;;;;;;;;;;;;;;9.83;49.60;101977.34;5054194;28;1905;-73
2021/03/21 11:36:15;;;;;;;;;;;;;;;9.67;49.82;101971.34;5055477;28;2040;-73
2021/03/21 11:38:41;;;;;;;;;;;;;;;9.59;50.13;101976.47;5055308;28;1724;-73
2021/03/21 11:41:46;;;;;;;;;;;;;;;9.80;49.79;101970.50;5055440;28;880;-73
2021/03/21 11:44:16;;;;;;;;;;;;;;;10.46;48.34;101959.03;4993845;28;1386;-73
2021/03/21 11:46:41;;;;;;;;;;;;;;;10.45;47.26;101960.97;4993725;28;941;-73
2021/03/21 11:49:08;;;;;;;;;;;;;;;10.22;47.54;101967.59;5024194;28;1317;-73
2021/03/21 11:51:33;;;;;;;;;;;;;;;9.81;49.40;101963.88;5055906;28;2075;-73
2021/03/21 11:54:00;;;;;;;;;;;;;;;9.71;50.44;101964.13;5055231;28;849;-73
2021/03/21 11:56:52;;;;;;;;;;;;;;;10.56;47.97;101953.22;5052932;28;1965;-73
2021/03/21 11:59:23;;;;;;;;;;;;;;;10.96;46.76;101946.91;5054752;28;2038;-73
2021/03/21 12:01:56;;;;;;;;;;;;;;;11.44;44.72;101954.38;5055208;28;2101;-73
2021/03/21 12:04:33;;;;;;;;;;;;;;;12.12;44.20;101959.47;5055046;28;1940;-73
2021/03/21 12:06:59;;;;;;;;;;;;;;;12.17;43.57;101948.22;5055465;28;853;-73
2021/03/21 12:09:25;;;;;;;;;;;;;;;11.52;43.92;101956.31;5054736;28;1274;-73
2021/03/21 12:11:51;;;;;;;;;;;;;;;11.66;44.00;101961.69;5054885;28;2026;-73
2021/03/21 12:14:37;;;;;;;;;;;;;;;11.65;44.20;101960.91;5055385;28;892;-73
2021/03/21 12:17:32;;;;;;;;;;;;;;;11.04;45.11;101965.44;5054469;28;2142;-74
2021/03/21 12:20:32;;;;;;;;;;;;;;;10.60;46.12;101962.50;5028297;28;1334;-73
2021/03/21 12:22:58;;;;;;;;;;;;;;;12.04;43.47;101961.94;5049413;28;2157;-73
2021/03/21 12:25:26;;;;;;;;;;;;;;;12.23;42.25;101957.97;5054507;28;1960;-73
2021/03/21 12:28:02;;;;;;;;;;;;;;;11.93;43.20;101957.03;5054700;28;2563;-73
2021/03/21 12:30:27;;;;;;;;;;;;;;;11.57;43.68;101953.41;5055452;28;908;-74
2021/03/21 12:32:55;;;;;;;;;;;;;;;10.76;46.09;101943.56;5054462;28;932;-74
2021/03/21 12:35:26;;;;;;;;;;;;;;;10.08;47.88;101964.91;5054861;28;1885;-73
2021/03/21 12:38:03;;;;;;;;;;;;;;;9.82;47.14;101976.53;5053217;28;2187;-73
2021/03/21 12:40:36;;;;;;;;;;;;;;;9.68;48.22;101954.50;5055009;28;1388;-73
2021/03/21 12:43:31;;;;;;;;;;;;;;;9.45;48.73;101959.16;5051218;28;2043;-73
2021/03/21 12:46:11;;;;;;;;;;;;;;;9.31;49.53;101956.41;5035474;28;848;-73
2021/03/21 12:49:04;;;;;;;;;;;;;;;9.19;49.48;101954.19;5035352;28;1357;-73
2021/03/21 12:51:34;;;;;;;;;;;;;;;8.78;51.59;101962.44;5034632;28;1132;-73
2021/03/21 12:54:02;;;;;;;;;;;;;;;8.51;51.33;101957.69;5050115;28;821;-73
2021/03/21 12:56:27;;;;;;;;;;;;;;;8.43;52.60;101956.47;5036651;28;2235;-73
2021/03/21 12:58:53;;;;;;;;;;;;;;;8.76;52.45;101943.47;5054354;28;1317;-73
2021/03/21 13:01:20;;;;;;;;;;;;;;;9.53;49.18;101960.34;5050969;28;2461;-73
2021/03/21 13:03:45;;;;;;;;;;;;;;;10.13;47.71;101953.72;5051588;28;2398;-74
2021/03/21 13:06:11;;;;;;;;;;;;;;;10.90;45.17;101948.97;5052743;28;2019;-73
2021/03/21 13:08:36;;;;;;;;;;;;;;;10.96;45.57;101957.97;5052990;28;2304;-73
2021/03/21 13:11:03;;;;;;;;;;;;;;;10.63;45.70;101961.88;5053535;28;2320;-73
2021/03/21 13:13:29;;;;;;;;;;;;;;;10.29;46.62;101957.72;5053617;28;2341;-73
2021/03/21 13:15:57;;;;;;;;;;;;;;;10.00;46.57;101949.09;5052337;28;2293;-73
2021/03/21 13:18:24;;;;;;;;;;;;;;;10.25;46.31;101959.50;5041664;28;2377;-74
2021/03/21 13:20:54;;;;;;;;;;;;;;;13.00;41.66;101965.59;5040679;28;2297;-73
2021/03/21 13:23:22;;;;;;;;;;;;;;;12.63;40.00;101959.69;5053437;28;2306;-73
2021/03/21 13:25:47;;;;;;;;;;;;;;;11.25;43.62;101958.22;5054170;28;882;-73
2021/03/21 13:28:13;;;;;;;;;;;;;;;10.87;45.17;101978.09;5054077;28;1814;-73
2021/03/21 13:30:42;;;;;;;;;;;;;;;10.32;46.09;101979.22;5055038;28;870;-73
2021/03/21 13:33:15;;;;;;;;;;;;;;;10.78;45.43;101974.47;5054041;28;888;-73
2021/03/21 13:35:40;;;;;;;;;;;;;;;10.68;45.15;101981.06;5054193;28;1898;-73
2021/03/21 13:38:06;;;;;;;;;;;;;;;9.50;48.11;101972.84;5038926;28;1651;-73
2021/03/21 13:40:35;;;;;;;;;;;;;;;9.02;49.55;101963.06;5039103;28;1445;-73
2021/03/21 13:43:03;;;;;;;;;;;;;;;8.89;50.33;101980.38;5049862;28;1327;-73